Time;durP1;ratioP1;P1;durP2;ratioP2;P2;SDS_P1;SDS_P2;PMS_P1;PMS_P2;Temp;Humidity;BMP_temperature;BMP_pressure;BME280_temperature;BME280_humidity;BME280_pressure;Samples;Min_cycle;Max_cycle;Signal;HPM_P1;HPM_P2
2022/03/16 00:02:06;;;;;;;1.70;1.60;;;9.20;98.00;;;;;;6120753;23;20418;-68
2022/03/16 00:04:34;;;;;;;2.07;1.80;;;9.20;98.00;;;;;;6120647;23;20486;-68
2022/03/16 00:07:02;;;;;;;2.23;1.83;;;9.20;98.00;;;;;;6120820;23;20440;-68
2022/03/16 00:09:29;;;;;;;2.23;2.07;;;9.20;98.00;;;;;;6120600;23;20417;-67
2022/03/16 00:11:57;;;;;;;1.77;1.70;;;9.10;98.00;;;;;;6120889;23;20421;-68
2022/03/16 00:14:23;;;;;;;4.63;2.43;;;9.20;98.00;;;;;;6121081;23;20402;-68
2022/03/16 00:16:50;;;;;;;1.93;1.83;;;9.20;98.00;;;;;;6120622;23;20443;-67
2022/03/16 00:19:17;;;;;;;4.50;2.10;;;9.20;98.00;;;;;;6095146;23;20404;-68
2022/03/16 00:21:49;;;;;;;2.93;2.23;;;9.30;98.00;;;;;;6120312;23;20407;-67
2022/03/16 00:24:16;;;;;;;3.40;2.07;;;9.30;98.00;;;;;;6119883;23;20441;-67
2022/03/16 00:26:43;;;;;;;2.50;2.03;;;9.30;98.00;;;;;;6120121;23;20414;-67
2022/03/16 00:29:10;;;;;;;2.33;2.20;;;9.30;98.00;;;;;;6120380;23;20440;-67
2022/03/16 00:31:37;;;;;;;2.63;2.40;;;9.20;98.00;;;;;;6120751;23;20407;-67
2022/03/16 00:34:04;;;;;;;2.93;2.80;;;9.30;98.00;;;;;;6120686;23;20420;-68
2022/03/16 00:36:31;;;;;;;2.90;2.10;;;9.20;98.00;;;;;;6120627;23;20420;-67
2022/03/16 00:39:00;;;;;;;3.03;2.73;;;9.20;98.00;;;;;;6120127;23;20450;-67
2022/03/16 00:41:26;;;;;;;4.30;2.10;;;9.10;98.00;;;;;;6120585;23;20504;-68
2022/03/16 00:43:56;;;;;;;3.10;2.03;;;9.00;98.00;;;;;;6120444;23;20453;-67
2022/03/16 00:46:23;;;;;;;2.47;2.10;;;9.00;98.00;;;;;;6120468;23;20471;-67
2022/03/16 00:48:50;;;;;;;2.00;1.70;;;9.00;98.00;;;;;;6120747;23;20426;-67
2022/03/16 00:51:17;;;;;;;3.73;2.77;;;9.00;98.00;;;;;;6120260;23;20418;-67
2022/03/16 00:53:45;;;;;;;2.20;1.70;;;9.10;98.00;;;;;;6120404;23;20413;-67
2022/03/16 00:56:14;;;;;;;2.40;2.17;;;9.10;98.00;;;;;;6120778;23;20432;-68
2022/03/16 00:58:41;;;;;;;4.17;3.23;;;9.20;98.00;;;;;;6120581;23;20777;-67
2022/03/16 01:01:09;;;;;;;5.47;3.13;;;9.20;98.00;;;;;;6120735;23;20418;-68
2022/03/16 01:03:40;;;;;;;4.17;2.83;;;9.10;98.00;;;;;;6120298;23;20913;-68
2022/03/16 01:06:12;;;;;;;1.80;1.73;;;9.10;98.00;;;;;;6120888;23;20977;-67
2022/03/16 01:08:39;;;;;;;3.03;1.63;;;9.10;98.00;;;;;;6096222;23;20476;-68
2022/03/16 01:11:06;;;;;;;2.83;2.60;;;9.10;98.00;;;;;;6120655;23;20408;-68
2022/03/16 01:13:34;;;;;;;2.63;2.23;;;9.20;98.00;;;;;;6119998;23;20418;-68
2022/03/16 01:16:01;;;;;;;4.80;2.43;;;9.10;98.00;;;;;;6120096;23;20443;-68
2022/03/16 01:18:29;;;;;;;4.03;2.73;;;9.20;98.00;;;;;;6094057;23;20418;-67
2022/03/16 01:20:58;;;;;;;2.43;2.27;;;9.20;98.00;;;;;;6120603;23;20449;-67
2022/03/16 01:23:25;;;;;;;2.40;2.07;;;9.30;98.00;;;;;;6119554;23;20406;-67
2022/03/16 01:25:52;;;;;;;3.37;2.03;;;9.30;98.00;;;;;;6119984;23;20440;-68
2022/03/16 01:28:19;;;;;;;2.80;2.17;;;9.30;98.00;;;;;;6120339;23;20410;-68
2022/03/16 01:30:47;;;;;;;1.83;1.60;;;9.40;98.00;;;;;;6120164;23;20419;-67
2022/03/16 01:33:17;;;;;;;1.83;1.53;;;9.40;98.00;;;;;;6119975;23;20876;-67
2022/03/16 01:35:44;;;;;;;3.60;2.23;;;9.40;98.00;;;;;;6120112;23;20908;-68
2022/03/16 01:38:11;;;;;;;2.53;2.03;;;9.30;98.00;;;;;;6120398;23;20416;-68
2022/03/16 01:40:38;;;;;;;3.20;2.20;;;9.20;98.00;;;;;;6120637;23;20474;-68
2022/03/16 01:43:06;;;;;;;7.33;4.03;;;9.20;98.00;;;;;;6119913;23;20420;-68
2022/03/16 01:45:33;;;;;;;2.30;2.10;;;9.30;98.00;;;;;;6120073;23;20445;-67
2022/03/16 01:48:04;;;;;;;2.53;2.00;;;9.20;98.00;;;;;;6119884;23;20429;-67
2022/03/16 01:50:31;;;;;;;2.03;1.93;;;9.10;98.00;;;;;;6120143;23;20952;-67
2022/03/16 01:52:58;;;;;;;2.40;2.10;;;9.10;98.00;;;;;;6094909;23;20783;-67
2022/03/16 01:55:25;;;;;;;1.53;1.43;;;9.10;98.00;;;;;;6121089;23;20740;-67
2022/03/16 01:57:52;;;;;;;2.27;2.07;;;9.20;98.00;;;;;;6120598;23;20749;-68
2022/03/16 02:00:23;;;;;;;2.80;2.60;;;9.30;98.00;;;;;;6120431;23;20465;-68
2022/03/16 02:02:50;;;;;;;3.93;2.30;;;9.30;98.00;;;;;;6120341;23;20402;-68
2022/03/16 02:05:18;;;;;;;4.90;3.17;;;9.40;98.00;;;;;;6120300;23;20489;-67
2022/03/16 02:07:46;;;;;;;3.00;2.27;;;9.50;98.00;;;;;;6120165;23;20471;-68
2022/03/16 02:10:13;;;;;;;3.83;2.70;;;9.60;98.00;;;;;;6120133;23;20457;-68
2022/03/16 02:12:44;;;;;;;3.00;2.13;;;9.50;98.00;;;;;;6119784;23;20444;-68
2022/03/16 02:15:12;;;;;;;1.73;1.70;;;9.40;98.00;;;;;;6120388;23;20400;-68
2022/03/16 02:17:39;;;;;;;3.30;1.57;;;9.30;98.00;;;;;;6120189;23;20441;-67
2022/03/16 02:20:07;;;;;;;1.90;1.67;;;9.40;98.00;;;;;;6120175;23;20411;-67
2022/03/16 02:22:37;;;;;;;3.90;3.43;;;9.20;98.00;;;;;;6120200;23;20469;-68
2022/03/16 02:25:09;;;;;;;3.33;2.00;;;9.20;98.00;;;;;;6120080;23;20433;-67
2022/03/16 02:27:40;;;;;;;3.90;2.90;;;9.20;98.00;;;;;;6120361;23;20440;-67
2022/03/16 02:30:09;;;;;;;2.47;1.97;;;9.20;98.00;;;;;;6120278;23;20401;-68
2022/03/16 02:32:37;;;;;;;4.87;2.70;;;9.20;98.00;;;;;;6120136;23;20461;-67
2022/03/16 02:35:05;;;;;;;2.30;1.97;;;9.20;98.00;;;;;;6118955;23;20445;-67
2022/03/16 02:37:36;;;;;;;2.77;2.57;;;9.20;98.00;;;;;;6120101;23;20405;-68
2022/03/16 02:40:03;;;;;;;2.47;2.10;;;9.20;98.00;;;;;;6120083;23;20407;-67
2022/03/16 02:42:31;;;;;;;2.73;2.20;;;9.20;98.00;;;;;;6119682;23;20428;-67
2022/03/16 02:44:58;;;;;;;3.80;2.53;;;9.10;98.00;;;;;;6119984;23;20772;-68
2022/03/16 02:47:25;;;;;;;1.90;1.80;;;9.20;98.00;;;;;;6119961;23;20460;-68
2022/03/16 02:49:52;;;;;;;3.77;2.70;;;9.00;98.00;;;;;;6119617;23;20900;-67
2022/03/16 02:52:19;;;;;;;2.73;2.53;;;8.90;98.00;;;;;;6119662;23;20418;-68
2022/03/16 02:54:46;;;;;;;4.73;2.40;;;9.00;98.00;;;;;;6120370;23;20515;-67
2022/03/16 02:57:16;;;;;;;2.27;1.93;;;9.00;98.00;;;;;;6119460;23;20418;-67
2022/03/16 02:59:44;;;;;;;2.77;2.17;;;9.00;98.00;;;;;;6119831;23;20915;-67
2022/03/16 03:02:12;;;;;;;1.73;1.63;;;9.10;98.00;;;;;;6119826;23;20460;-68
2022/03/16 03:04:39;;;;;;;1.80;1.70;;;9.10;98.00;;;;;;6119251;23;20423;-68
2022/03/16 03:07:07;;;;;;;2.30;2.13;;;9.10;98.00;;;;;;6119434;23;20454;-67
2022/03/16 03:09:35;;;;;;;2.40;2.20;;;9.10;98.00;;;;;;6119378;23;20447;-67
2022/03/16 03:12:03;;;;;;;2.20;2.00;;;9.10;98.00;;;;;;6119292;23;20897;-68
2022/03/16 03:14:30;;;;;;;2.10;1.97;;;9.00;98.00;;;;;;6119618;23;20457;-68
2022/03/16 03:16:58;;;;;;;2.80;2.03;;;9.00;98.00;;;;;;6119337;23;20475;-68
2022/03/16 03:19:28;;;;;;;2.27;2.07;;;9.10;98.00;;;;;;6119583;23;20430;-67
2022/03/16 03:21:55;;;;;;;4.70;3.60;;;9.00;98.00;;;;;;6119713;23;20401;-68
2022/03/16 03:24:22;;;;;;;2.50;2.00;;;9.00;98.00;;;;;;6119649;23;20955;-68
2022/03/16 03:26:49;;;;;;;2.77;2.60;;;9.10;98.00;;;;;;6119251;23;20938;-68
2022/03/16 03:29:16;;;;;;;3.53;2.30;;;9.10;98.00;;;;;;6119195;23;20938;-67
2022/03/16 03:31:44;;;;;;;2.80;2.23;;;9.00;98.00;;;;;;6119312;23;20471;-68
2022/03/16 03:34:13;;;;;;;3.33;2.40;;;9.10;98.00;;;;;;6119567;23;20445;-67
2022/03/16 03:36:40;;;;;;;4.37;2.40;;;9.10;98.00;;;;;;6120006;23;20787;-68
2022/03/16 03:39:07;;;;;;;19.77;2.30;;;9.00;98.00;;;;;;6119823;23;20417;-68
2022/03/16 03:41:34;;;;;;;2.87;2.30;;;9.00;98.00;;;;;;6119695;23;20417;-67
2022/03/16 03:44:01;;;;;;;1.83;1.73;;;8.90;98.00;;;;;;6069534;23;20421;-68
2022/03/16 03:46:31;;;;;;;3.47;2.00;;;8.90;98.00;;;;;;6129500;23;20975;-68
2022/03/16 03:48:58;;;;;;;3.30;2.40;;;8.90;98.00;;;;;;6244095;23;20416;-68
2022/03/16 03:51:26;;;;;;;2.20;2.00;;;8.90;98.00;;;;;;6245262;22;20418;-68
2022/03/16 03:53:53;;;;;;;3.33;2.53;;;8.80;98.00;;;;;;6245267;22;20450;-68
2022/03/16 03:56:20;;;;;;;2.10;1.90;;;8.90;98.00;;;;;;6243722;23;20479;-67
2022/03/16 03:58:47;;;;;;;3.60;1.90;;;8.80;98.00;;;;;;6245470;22;20437;-67
2022/03/16 04:01:15;;;;;;;1.80;1.70;;;8.80;98.00;;;;;;6245859;22;20484;-68
2022/03/16 04:03:43;;;;;;;4.93;2.70;;;8.70;98.00;;;;;;6246059;22;20882;-67
2022/03/16 04:06:10;;;;;;;2.23;2.03;;;8.70;98.00;;;;;;6246077;22;20441;-67
2022/03/16 04:08:39;;;;;;;1.90;1.80;;;8.60;98.00;;;;;;6245839;22;20409;-67
2022/03/16 04:11:07;;;;;;;3.37;2.47;;;8.60;98.00;;;;;;6245387;22;20414;-67
2022/03/16 04:13:33;;;;;;;1.83;1.50;;;8.60;98.00;;;;;;6245195;22;20415;-67
2022/03/16 04:16:00;;;;;;;2.43;2.10;;;8.70;98.00;;;;;;6245777;22;20405;-68
2022/03/16 04:18:28;;;;;;;4.20;3.03;;;8.70;98.00;;;;;;6244962;22;20421;-67
2022/03/16 04:20:55;;;;;;;2.93;2.33;;;8.80;98.00;;;;;;6245528;22;20489;-67
2022/03/16 04:23:22;;;;;;;3.13;2.33;;;9.00;98.00;;;;;;6245174;22;20421;-68
2022/03/16 04:25:52;;;;;;;3.43;2.63;;;9.00;98.00;;;;;;6244549;22;20427;-67
2022/03/16 04:28:19;;;;;;;1.77;1.70;;;9.00;98.00;;;;;;6244991;22;20405;-68
2022/03/16 04:30:46;;;;;;;3.03;2.07;;;9.00;98.00;;;;;;6245598;22;20421;-67
2022/03/16 04:33:13;;;;;;;3.20;2.23;;;9.00;98.00;;;;;;6244993;22;20865;-68
2022/03/16 04:35:43;;;;;;;2.77;2.30;;;9.10;98.00;;;;;;6244872;22;20422;-67
2022/03/16 04:38:11;;;;;;;1.80;1.77;;;9.20;98.00;;;;;;6243688;23;20713;-67
2022/03/16 04:40:38;;;;;;;2.60;2.17;;;9.20;98.00;;;;;;6244936;22;20402;-68
2022/03/16 04:43:06;;;;;;;4.23;3.10;;;9.30;98.00;;;;;;6245205;22;20456;-67
2022/03/16 04:45:37;;;;;;;3.07;2.37;;;9.40;98.00;;;;;;6245074;22;20537;-67
2022/03/16 04:48:07;;;;;;;2.67;2.50;;;9.30;98.00;;;;;;6129893;22;20437;-67
2022/03/16 04:50:34;;;;;;;1.80;1.70;;;9.20;98.00;;;;;;6120461;23;20946;-67
2022/03/16 04:53:01;;;;;;;1.93;1.87;;;9.20;98.00;;;;;;6120335;23;20890;-67
2022/03/16 04:55:28;;;;;;;2.53;2.37;;;9.20;98.00;;;;;;6120243;23;20418;-66
2022/03/16 04:57:55;;;;;;;4.60;2.47;;;9.20;98.00;;;;;;6119879;23;20450;-67
2022/03/16 05:00:24;;;;;;;2.50;2.40;;;9.10;98.00;;;;;;6120624;23;20418;-68
2022/03/16 05:02:51;;;;;;;3.53;2.47;;;9.10;98.00;;;;;;6120129;23;20456;-67
2022/03/16 05:05:18;;;;;;;4.07;3.20;;;9.00;98.00;;;;;;6120380;23;20417;-68
2022/03/16 05:07:45;;;;;;;2.00;1.90;;;9.10;98.00;;;;;;6120573;23;20729;-67
2022/03/16 05:10:12;;;;;;;3.67;2.53;;;9.00;98.00;;;;;;6120495;23;20421;-68
2022/03/16 05:12:43;;;;;;;3.30;2.10;;;9.00;98.00;;;;;;6120042;23;20449;-67
2022/03/16 05:15:13;;;;;;;4.43;3.30;;;8.90;98.00;;;;;;6095392;23;20425;-68
2022/03/16 05:17:41;;;;;;;1.97;1.87;;;8.80;98.00;;;;;;6120230;23;20401;-67
2022/03/16 05:20:10;;;;;;;4.50;3.27;;;8.60;98.00;;;;;;6120293;23;20521;-67
2022/03/16 05:22:42;;;;;;;2.93;2.60;;;8.60;98.00;;;;;;6120356;23;20449;-67
2022/03/16 05:25:10;;;;;;;2.30;2.10;;;8.40;98.00;;;;;;6120957;23;20401;-67
2022/03/16 05:27:37;;;;;;;2.03;1.63;;;8.30;98.00;;;;;;6120286;23;20451;-67
2022/03/16 05:30:05;;;;;;;1.93;1.83;;;8.30;98.00;;;;;;6120517;23;20926;-67
2022/03/16 05:32:32;;;;;;;2.30;2.13;;;8.20;98.00;;;;;;6119957;23;20453;-67
2022/03/16 05:35:01;;;;;;;3.00;2.20;;;8.20;98.00;;;;;;6120522;23;20415;-67
2022/03/16 05:37:28;;;;;;;5.00;3.33;;;8.10;98.00;;;;;;6120043;23;20488;-68
2022/03/16 05:39:56;;;;;;;2.67;2.03;;;8.20;98.00;;;;;;6120073;23;20400;-67
2022/03/16 05:42:23;;;;;;;2.37;2.00;;;8.10;98.00;;;;;;6120158;23;20428;-68
2022/03/16 05:44:54;;;;;;;4.30;3.20;;;8.10;98.00;;;;;;6120115;23;20453;-68
2022/03/16 05:47:22;;;;;;;1.83;1.70;;;8.00;98.00;;;;;;6119820;23;20855;-67
2022/03/16 05:49:50;;;;;;;2.13;1.97;;;8.00;98.00;;;;;;6120334;23;20430;-67
2022/03/16 05:52:21;;;;;;;1.87;1.80;;;8.00;98.00;;;;;;6119858;23;20909;-68
2022/03/16 05:54:49;;;;;;;1.70;1.60;;;8.00;98.00;;;;;;6120390;23;20402;-68
2022/03/16 05:57:16;;;;;;;3.57;3.07;;;8.00;98.00;;;;;;6120178;23;20403;-67
2022/03/16 05:59:44;;;;;;;2.37;2.17;;;7.90;98.00;;;;;;6120040;23;20397;-67
2022/03/16 06:02:11;;;;;;;6.90;2.47;;;7.90;98.00;;;;;;6120193;23;20970;-67
2022/03/16 06:04:38;;;;;;;2.83;2.20;;;8.00;98.00;;;;;;6119869;23;20457;-67
2022/03/16 06:07:06;;;;;;;2.77;2.20;;;8.10;98.00;;;;;;6120538;23;20822;-67
2022/03/16 06:09:35;;;;;;;2.53;2.43;;;8.10;98.00;;;;;;6119580;23;20415;-67
2022/03/16 06:12:04;;;;;;;2.80;2.50;;;8.00;98.00;;;;;;6120546;23;20426;-67
2022/03/16 06:14:32;;;;;;;2.27;2.07;;;7.90;98.00;;;;;;6119912;23;20429;-67
2022/03/16 06:16:59;;;;;;;4.20;1.93;;;7.90;98.00;;;;;;6120777;23;20476;-67
2022/03/16 06:19:26;;;;;;;3.93;2.60;;;7.80;98.00;;;;;;6120045;23;20419;-68
2022/03/16 06:21:53;;;;;;;2.93;2.03;;;7.80;98.00;;;;;;6120170;23;20477;-67
2022/03/16 06:24:20;;;;;;;2.17;1.97;;;7.70;98.00;;;;;;6119802;23;20486;-67
2022/03/16 06:26:48;;;;;;;2.40;2.20;;;7.60;98.00;;;;;;6120068;23;20483;-67
2022/03/16 06:29:16;;;;;;;3.10;2.67;;;7.60;98.00;;;;;;6120053;23;20469;-67
2022/03/16 06:31:43;;;;;;;2.27;1.80;;;7.80;98.00;;;;;;6120175;23;20404;-67
2022/03/16 06:34:10;;;;;;;2.37;2.03;;;7.80;98.00;;;;;;6120003;23;20424;-67
2022/03/16 06:36:37;;;;;;;2.70;2.50;;;7.80;98.00;;;;;;6119784;23;20906;-67
2022/03/16 06:39:05;;;;;;;7.03;2.03;;;7.70;98.00;;;;;;6120029;23;20462;-68
2022/03/16 06:41:33;;;;;;;2.70;2.10;;;7.70;98.00;;;;;;6118550;23;20483;-67
2022/03/16 06:44:02;;;;;;;2.97;2.53;;;7.70;98.00;;;;;;6119779;23;20440;-67
2022/03/16 06:46:28;;;;;;;3.97;2.43;;;7.70;98.00;;;;;;6119850;23;20942;-67
2022/03/16 06:48:55;;;;;;;3.00;2.17;;;7.70;98.00;;;;;;6119512;23;20459;-67
2022/03/16 06:51:23;;;;;;;2.30;2.10;;;7.70;98.00;;;;;;6119581;23;20466;-68
2022/03/16 06:53:49;;;;;;;3.77;2.77;;;7.70;98.00;;;;;;6119525;23;20885;-68
2022/03/16 06:56:17;;;;;;;3.20;2.70;;;7.70;98.00;;;;;;6119451;23;20956;-68
2022/03/16 06:58:44;;;;;;;2.37;2.10;;;7.60;98.00;;;;;;6094420;23;20402;-68
2022/03/16 07:01:12;;;;;;;1.67;1.63;;;7.60;98.00;;;;;;6120091;23;20454;-68
2022/03/16 07:03:39;;;;;;;1.90;1.70;;;7.50;98.00;;;;;;6119881;23;20517;-68
2022/03/16 07:06:08;;;;;;;2.77;2.17;;;7.50;98.00;;;;;;6120189;23;20831;-68
2022/03/16 07:08:35;;;;;;;1.87;1.60;;;7.50;98.00;;;;;;6093468;23;20432;-67
2022/03/16 07:11:02;;;;;;;3.07;2.17;;;7.50;98.00;;;;;;6119619;23;20914;-67
2022/03/16 07:13:29;;;;;;;3.43;1.80;;;7.50;98.00;;;;;;6119351;23;20445;-67
2022/03/16 07:15:56;;;;;;;2.37;2.13;;;7.60;98.00;;;;;;6119802;23;20419;-67
2022/03/16 07:18:24;;;;;;;1.60;1.43;;;7.70;98.00;;;;;;6094197;23;20471;-67
2022/03/16 07:20:51;;;;;;;2.60;2.30;;;7.70;98.00;;;;;;6119625;23;20419;-67
2022/03/16 07:23:19;;;;;;;2.40;2.20;;;7.60;98.00;;;;;;6120482;23;20419;-67
2022/03/16 07:25:47;;;;;;;15.83;2.30;;;7.70;98.00;;;;;;6120519;23;20419;-67
2022/03/16 07:28:14;;;;;;;2.30;2.13;;;7.80;98.00;;;;;;6120735;23;20441;-67
2022/03/16 07:30:42;;;;;;;1.60;1.53;;;7.80;98.00;;;;;;6120705;23;20878;-67
2022/03/16 07:33:10;;;;;;;3.17;2.97;;;7.80;98.00;;;;;;6120914;23;20428;-67
2022/03/16 07:35:39;;;;;;;3.27;2.30;;;7.80;98.00;;;;;;6121188;23;20439;-67
2022/03/16 07:38:08;;;;;;;2.63;2.43;;;7.90;98.00;;;;;;6121119;23;20482;-67
2022/03/16 07:40:36;;;;;;;1.60;1.60;;;7.90;98.00;;;;;;6118214;23;20472;-67
2022/03/16 07:43:04;;;;;;;2.20;1.83;;;7.90;98.00;;;;;;6120828;23;20474;-67
2022/03/16 07:45:31;;;;;;;3.10;2.53;;;7.80;98.00;;;;;;6095032;23;20423;-67
2022/03/16 07:47:59;;;;;;;3.00;2.63;;;7.80;98.00;;;;;;6120483;23;20940;-67
2022/03/16 07:50:27;;;;;;;2.03;1.70;;;7.80;98.00;;;;;;6120943;23;20394;-67
2022/03/16 07:52:56;;;;;;;2.80;1.50;;;7.80;98.00;;;;;;6120380;23;20498;-67
2022/03/16 07:55:23;;;;;;;1.53;1.47;;;7.80;98.00;;;;;;6120137;23;20422;-67
2022/03/16 07:57:50;;;;;;;5.40;2.40;;;7.80;98.00;;;;;;6120909;23;20458;-67
2022/03/16 08:00:18;;;;;;;1.83;1.73;;;7.80;98.00;;;;;;6121063;23;20423;-66
2022/03/16 08:02:45;;;;;;;2.73;2.30;;;7.80;98.00;;;;;;6120571;23;20428;-67
2022/03/16 08:05:13;;;;;;;3.00;2.30;;;7.90;98.00;;;;;;6120857;23;20573;-67
2022/03/16 08:07:40;;;;;;;2.20;2.00;;;7.90;98.00;;;;;;6095217;23;20942;-67
2022/03/16 08:10:10;;;;;;;3.07;2.90;;;8.00;98.00;;;;;;6120908;23;20867;-66
2022/03/16 08:12:36;;;;;;;1.60;1.60;;;8.00;98.00;;;;;;6094776;23;20423;-67
2022/03/16 08:15:05;;;;;;;2.73;2.13;;;8.10;98.00;;;;;;6120151;23;20418;-67
2022/03/16 08:17:32;;;;;;;1.77;1.63;;;8.10;98.00;;;;;;6117751;23;20426;-68
2022/03/16 08:19:59;;;;;;;1.97;1.57;;;8.20;98.00;;;;;;6119728;23;20404;-68
2022/03/16 08:22:27;;;;;;;2.37;2.00;;;8.10;98.00;;;;;;6119532;23;20461;-68
2022/03/16 08:24:55;;;;;;;2.80;2.60;;;8.10;98.00;;;;;;6119803;23;20439;-68
2022/03/16 08:27:24;;;;;;;4.00;2.40;;;8.10;98.00;;;;;;6093976;23;20487;-68
2022/03/16 08:29:50;;;;;;;2.60;1.73;;;8.20;98.00;;;;;;6119652;23;21147;-67
2022/03/16 08:32:17;;;;;;;3.40;2.33;;;8.20;98.00;;;;;;6119417;23;20595;-67
2022/03/16 08:34:45;;;;;;;3.33;3.00;;;8.20;98.00;;;;;;6119100;23;20499;-68
2022/03/16 08:37:12;;;;;;;1.53;1.43;;;8.30;98.00;;;;;;6119345;23;20403;-67
2022/03/16 08:39:39;;;;;;;2.73;2.03;;;8.30;98.00;;;;;;6118876;23;20472;-67
2022/03/16 08:42:06;;;;;;;2.70;2.30;;;8.40;98.00;;;;;;6119613;23;20825;-68
2022/03/16 08:44:35;;;;;;;1.97;1.67;;;8.50;98.00;;;;;;6119099;23;20498;-67
2022/03/16 08:47:03;;;;;;;2.40;1.93;;;8.50;98.00;;;;;;6119291;23;20493;-67
2022/03/16 08:49:30;;;;;;;2.07;1.83;;;8.50;98.00;;;;;;6118823;23;20461;-67
2022/03/16 08:51:58;;;;;;;2.60;2.30;;;8.50;98.00;;;;;;6119387;23;20419;-67
2022/03/16 08:54:25;;;;;;;4.23;2.13;;;8.50;98.00;;;;;;6119836;23;20467;-69
2022/03/16 08:56:52;;;;;;;1.80;1.63;;;8.50;98.00;;;;;;6119238;23;20686;-68
2022/03/16 08:59:20;;;;;;;1.30;1.20;;;8.50;98.00;;;;;;6119436;23;20713;-68
2022/03/16 09:01:50;;;;;;;1.60;1.60;;;8.50;98.00;;;;;;6119976;23;20728;-68
2022/03/16 09:04:17;;;;;;;3.40;2.20;;;8.60;98.00;;;;;;6119939;23;20464;-68
2022/03/16 09:06:44;;;;;;;2.70;1.87;;;8.70;98.00;;;;;;6119493;23;20405;-68
2022/03/16 09:09:12;;;;;;;1.93;1.53;;;8.70;98.00;;;;;;6093496;23;20413;-68
2022/03/16 09:11:40;;;;;;;2.63;2.43;;;8.80;98.00;;;;;;6119103;23;20412;-67
2022/03/16 09:14:07;;;;;;;2.27;2.00;;;8.90;98.00;;;;;;6095409;23;20398;-66
2022/03/16 09:16:34;;;;;;;1.80;1.30;;;9.00;98.00;;;;;;6120563;23;20462;-67
2022/03/16 09:19:03;;;;;;;2.07;1.87;;;9.10;98.00;;;;;;6120443;23;20423;-67
2022/03/16 09:21:29;;;;;;;3.33;2.10;;;9.10;98.00;;;;;;6119511;23;20737;-67
2022/03/16 09:23:57;;;;;;;3.80;2.97;;;9.10;98.00;;;;;;6119198;23;20424;-67
2022/03/16 09:26:24;;;;;;;4.50;2.20;;;9.20;98.00;;;;;;6119422;23;20416;-68
2022/03/16 09:28:51;;;;;;;1.43;1.27;;;9.20;98.00;;;;;;6119444;23;20433;-67
2022/03/16 09:31:20;;;;;;;2.23;2.03;;;9.20;98.00;;;;;;6119078;23;20423;-67
2022/03/16 09:33:48;;;;;;;2.20;2.00;;;9.20;98.00;;;;;;6119492;23;20745;-67
2022/03/16 09:36:17;;;;;;;2.33;2.13;;;9.30;98.00;;;;;;6119291;23;20450;-67
2022/03/16 09:38:45;;;;;;;2.47;1.90;;;9.40;98.00;;;;;;6119076;23;20931;-67
2022/03/16 09:41:12;;;;;;;3.77;2.20;;;9.50;98.00;;;;;;6119930;23;20482;-67
2022/03/16 09:43:40;;;;;;;1.80;1.80;;;9.60;98.00;;;;;;6119345;23;20470;-67
2022/03/16 09:46:11;;;;;;;1.97;1.73;;;9.60;98.00;;;;;;6119497;23;20764;-67
2022/03/16 09:48:39;;;;;;;2.07;1.63;;;9.60;98.00;;;;;;6118931;23;20501;-67
2022/03/16 09:51:07;;;;;;;1.70;1.60;;;9.80;98.00;;;;;;6118565;23;20471;-67
2022/03/16 09:53:35;;;;;;;4.03;2.00;;;9.80;98.00;;;;;;6118771;23;20477;-67
2022/03/16 09:56:03;;;;;;;10.30;3.20;;;9.90;98.00;;;;;;6118984;23;20417;-67
2022/03/16 09:58:30;;;;;;;5.43;3.43;;;9.90;98.00;;;;;;6093930;23;20738;-68
2022/03/16 10:00:57;;;;;;;2.00;1.87;;;10.00;98.00;;;;;;6118992;23;20872;-67
2022/03/16 10:03:28;;;;;;;4.40;1.93;;;10.10;98.00;;;;;;6118949;23;20910;-67
2022/03/16 10:05:56;;;;;;;2.80;2.13;;;10.20;98.00;;;;;;6119097;23;20406;-68
2022/03/16 10:08:30;;;;;;;3.97;2.60;;;10.30;98.00;;;;;;6119274;23;20512;-68
2022/03/16 10:13:57;;;;;;;2.90;2.70;;;10.60;98.00;;;;;;6119211;23;20467;-68
2022/03/16 10:16:25;;;;;;;2.07;1.83;;;10.70;98.00;;;;;;6119330;23;20440;-68
2022/03/16 10:19:12;;;;;;;2.00;1.90;;;10.70;98.00;;;;;;6118860;23;20793;-69
2022/03/16 10:21:40;;;;;;;2.37;1.80;;;10.70;98.00;;;;;;6119122;23;20482;-68
2022/03/16 10:24:07;;;;;;;4.80;1.90;;;10.90;98.00;;;;;;6119317;23;20425;-68
2022/03/16 10:26:35;;;;;;;3.70;2.20;;;10.80;98.00;;;;;;6119295;23;20426;-68
2022/03/16 10:29:04;;;;;;;3.10;2.37;;;10.90;98.00;;;;;;6093210;23;20478;-68
2022/03/16 10:31:31;;;;;;;3.20;2.40;;;10.90;98.00;;;;;;6093921;23;20413;-68
2022/03/16 10:34:01;;;;;;;2.17;2.00;;;11.00;98.00;;;;;;6118914;23;20796;-68
2022/03/16 10:36:28;;;;;;;2.13;2.00;;;11.10;98.00;;;;;;6119145;23;20755;-68
2022/03/16 10:38:58;;;;;;;4.80;2.13;;;11.10;98.00;;;;;;6119056;23;20696;-68
2022/03/16 10:47:10;;;;;;;3.27;2.50;;;11.30;98.00;;;;;;6118875;23;20452;-67
2022/03/16 10:49:38;;;;;;;4.13;1.90;;;11.50;98.00;;;;;;6118116;23;20465;-67
2022/03/16 10:52:09;;;;;;;3.20;2.20;;;11.60;98.00;;;;;;6118541;23;20398;-66
2022/03/16 10:54:38;;;;;;;5.67;2.67;;;11.80;98.00;;;;;;6093908;23;20386;-66
2022/03/16 10:57:10;;;;;;;3.20;2.03;;;11.90;98.00;;;;;;6118234;23;20873;-68
2022/03/16 10:59:39;;;;;;;5.20;1.80;;;12.00;98.00;;;;;;6118914;23;20405;-69
2022/03/16 11:02:12;;;;;;;2.10;1.60;;;12.20;98.00;;;;;;6118753;23;20398;-68
2022/03/16 11:04:39;;;;;;;4.20;2.80;;;12.20;98.00;;;;;;6118357;23;20441;-68
2022/03/16 11:07:07;;;;;;;2.50;1.90;;;12.10;98.00;;;;;;6118822;23;20416;-68
2022/03/16 11:09:35;;;;;;;2.47;2.27;;;12.20;98.00;;;;;;6092558;23;20458;-68
2022/03/16 11:14:53;;;;;;;3.63;2.80;;;12.40;98.00;;;;;;6096944;23;20485;-68
2022/03/16 11:17:22;;;;;;;3.47;2.30;;;12.50;98.00;;;;;;6118714;23;20439;-68
2022/03/16 11:19:52;;;;;;;3.17;2.53;;;12.50;98.00;;;;;;6093000;23;20903;-68
2022/03/16 11:22:25;;;;;;;3.73;2.13;;;12.60;98.00;;;;;;6118817;23;20404;-68
2022/03/16 11:24:58;;;;;;;3.53;2.70;;;12.70;98.00;;;;;;6118725;23;20455;-68
2022/03/16 11:27:41;;;;;;;3.20;1.73;;;12.90;98.00;;;;;;6118734;23;20792;-68
2022/03/16 11:30:17;;;;;;;2.00;1.53;;;12.90;98.00;;;;;;6118617;23;20798;-68
2022/03/16 11:32:46;;;;;;;2.30;2.10;;;13.00;98.00;;;;;;6118742;23;20404;-68
2022/03/16 11:35:15;;;;;;;2.13;1.50;;;13.00;98.00;;;;;;6118282;23;20424;-68
2022/03/16 11:37:44;;;;;;;1.80;1.73;;;13.10;98.00;;;;;;6118746;23;20421;-68
2022/03/16 11:40:15;;;;;;;3.90;2.10;;;13.20;98.00;;;;;;6118665;23;20483;-69
2022/03/16 11:43:04;;;;;;;3.00;2.33;;;13.50;98.00;;;;;;6117653;23;20442;-68
2022/03/16 11:45:41;;;;;;;2.13;1.63;;;13.80;98.00;;;;;;6118165;23;20428;-68
2022/03/16 11:48:37;;;;;;;3.23;2.37;;;14.10;98.00;;;;;;6118097;23;20445;-68
2022/03/16 11:51:18;;;;;;;3.00;2.20;;;14.30;98.00;;;;;;6117561;23;20572;-68
2022/03/16 11:54:06;;;;;;;3.20;2.60;;;14.50;98.00;;;;;;6118424;23;20410;-68
2022/03/16 11:56:57;;;;;;;3.20;2.43;;;14.60;98.00;;;;;;6117953;23;20431;-68
2022/03/16 11:59:35;;;;;;;3.30;2.50;;;14.80;98.00;;;;;;6118139;23;20752;-68
2022/03/16 12:02:13;;;;;;;3.37;1.83;;;15.00;98.00;;;;;;6117858;23;20504;-68
2022/03/16 12:04:43;;;;;;;8.63;2.10;;;15.10;98.00;;;;;;6118300;23;20736;-68
2022/03/16 12:07:12;;;;;;;4.87;2.90;;;15.30;98.00;;;;;;6118356;23;20433;-68
2022/03/16 12:09:44;;;;;;;2.80;2.00;;;15.50;98.00;;;;;;6119034;23;20501;-68
2022/03/16 12:15:30;;;;;;;5.53;3.07;;;15.70;98.00;;;;;;6129435;23;20450;-68
2022/03/16 12:18:23;;;;;;;3.47;2.60;;;15.60;98.00;;;;;;6116075;23;20515;-67
2022/03/16 12:20:56;;;;;;;6.60;2.30;;;15.70;98.00;;;;;;6119366;23;20408;-68
2022/03/16 12:23:45;;;;;;;2.33;1.90;;;15.90;98.00;;;;;;6129483;23;20423;-68
2022/03/16 12:26:14;;;;;;;2.30;2.03;;;15.90;98.00;;;;;;6118891;23;20483;-66
2022/03/16 12:28:58;;;;;;;3.10;2.40;;;15.90;98.00;;;;;;6119929;23;20431;-68
2022/03/16 12:31:25;;;;;;;2.43;2.10;;;15.80;98.00;;;;;;6120158;23;20463;-68
2022/03/16 12:33:55;;;;;;;2.37;2.03;;;15.60;98.00;;;;;;6119664;23;20741;-68
2022/03/16 12:36:25;;;;;;;2.27;2.10;;;15.60;98.00;;;;;;6119458;23;20507;-68
2022/03/16 12:38:54;;;;;;;2.80;2.57;;;15.60;98.00;;;;;;6119462;23;20425;-68
2022/03/16 12:44:08;;;;;;;4.97;2.70;;;15.30;98.00;;;;;;6129225;23;20396;-67
2022/03/16 12:46:42;;;;;;;2.73;2.07;;;15.10;98.00;;;;;;6119811;23;20967;-68
2022/03/16 12:49:12;;;;;;;5.30;3.30;;;15.00;98.00;;;;;;6118803;23;20461;-68
2022/03/16 12:51:43;;;;;;;2.93;2.30;;;15.10;98.00;;;;;;6119388;23;20404;-68
2022/03/16 12:54:11;;;;;;;2.60;2.33;;;15.10;98.00;;;;;;6119160;23;20883;-68
2022/03/16 12:56:40;;;;;;;4.43;2.30;;;15.10;98.00;;;;;;6119900;23;20470;-68
2022/03/16 12:59:09;;;;;;;4.03;3.17;;;14.90;98.00;;;;;;6119549;23;20405;-68
2022/03/16 13:01:36;;;;;;;2.50;2.27;;;14.80;98.00;;;;;;6119081;23;20462;-65
2022/03/16 13:04:05;;;;;;;3.33;2.43;;;14.80;98.00;;;;;;6119003;23;20416;-66
2022/03/16 13:06:34;;;;;;;2.27;2.13;;;14.60;98.00;;;;;;6093475;23;20478;-66
2022/03/16 13:09:05;;;;;;;2.47;1.90;;;14.60;98.00;;;;;;6118441;23;20969;-66
2022/03/16 13:11:32;;;;;;;2.73;2.53;;;14.40;98.00;;;;;;6119100;23;20890;-66
2022/03/16 13:14:04;;;;;;;3.30;2.37;;;14.30;98.00;;;;;;6118976;23;20975;-66
2022/03/16 13:16:39;;;;;;;2.23;2.00;;;14.20;98.00;;;;;;6119979;23;20407;-66
2022/03/16 13:19:08;;;;;;;2.27;2.07;;;14.20;98.00;;;;;;6119923;23;20481;-66
2022/03/16 13:21:39;;;;;;;3.40;1.97;;;14.10;98.00;;;;;;6120221;23;20433;-67